Time;durP1;ratioP1;P1;durP2;ratioP2;P2;SDS_P1;SDS_P2;PMS_P1;PMS_P2;Temp;Humidity;BMP_temperature;BMP_pressure;BME280_temperature;BME280_humidity;BME280_pressure;Samples;Min_cycle;Max_cycle;Signal;HPM_P1;HPM_P2
2021/11/28 00:02:43;;;;;;;8.40;7.70;;;;;;;3.73;100.00;99308.78;6171213;28;20234;-62
2021/11/28 00:06:08;;;;;;;7.60;7.00;;;;;;;3.30;100.00;99298.69;6162433;28;20264;-65
2021/11/28 00:09:40;;;;;;;7.23;6.63;;;;;;;3.19;100.00;99304.75;6168896;28;20317;-63
2021/11/28 00:13:04;;;;;;;8.73;8.03;;;;;;;2.67;100.00;99309.13;6175397;28;20225;-64
2021/11/28 00:16:25;;;;;;;8.27;7.47;;;;;;;2.70;100.00;99309.13;6173495;28;20248;-63
2021/11/28 00:19:46;;;;;;;8.70;8.00;;;;;;;3.41;100.00;99303.78;6177958;28;20833;-64
2021/11/28 00:23:09;;;;;;;8.43;7.73;;;;;;;3.14;100.00;99297.03;6163683;28;20603;-65
2021/11/28 00:26:30;;;;;;;8.27;7.57;;;;;;;3.42;100.00;99299.53;6167384;28;20683;-67
2021/11/28 00:29:53;;;;;;;9.10;8.30;;;;;;;3.22;100.00;99300.44;6154580;28;20225;-64
2021/11/28 00:33:13;;;;;;;9.77;8.87;;;;;;;3.21;100.00;99308.16;6171865;28;20264;-62
2021/11/28 00:36:34;;;;;;;9.30;8.50;;;;;;;3.53;100.00;99310.63;6167064;28;21505;-63
2021/11/28 00:39:57;;;;;;;9.93;9.03;;;;;;;3.64;100.00;99311.41;6163388;28;20254;-63
2021/11/28 00:43:19;;;;;;;8.33;7.63;;;;;;;3.70;100.00;99308.84;6159691;28;20539;-63
2021/11/28 00:46:40;;;;;;;9.60;8.70;;;;;;;3.93;100.00;99305.25;6160053;28;20527;-63
2021/11/28 00:50:07;;;;;;;9.23;8.43;;;;;;;3.90;100.00;99303.56;6161432;28;20923;-64
2021/11/28 00:53:29;;;;;;;9.93;9.03;;;;;;;3.84;100.00;99311.31;6171660;28;20226;-64
2021/11/28 00:56:51;;;;;;;7.53;6.93;;;;;;;3.68;100.00;99304.53;6168377;28;20623;-64
2021/11/28 01:00:14;;;;;;;8.80;8.07;;;;;;;3.96;100.00;99310.38;6157672;28;20801;-64
2021/11/28 01:03:35;;;;;;;8.67;7.90;;;;;;;3.94;100.00;99306.97;6169787;28;20622;-64
2021/11/28 01:06:58;;;;;;;8.40;7.60;;;;;;;4.04;100.00;99311.19;6175311;28;20234;-62
2021/11/28 01:10:19;;;;;;;9.47;8.67;;;;;;;4.35;100.00;99313.56;6163795;28;20234;-64
2021/11/28 01:13:42;;;;;;;9.50;8.60;;;;;;;4.44;99.19;99318.63;6165844;28;20230;-64
2021/11/28 01:17:04;;;;;;;9.97;9.10;;;;;;;4.60;98.20;99321.09;6166374;28;20333;-64
2021/11/28 01:20:25;;;;;;;8.97;8.17;;;;;;;4.72;97.22;99323.56;6158010;28;20225;-64
2021/11/28 01:23:47;;;;;;;9.00;8.10;;;;;;;4.51;96.43;99320.28;6182130;28;20225;-63
2021/11/28 01:27:12;;;;;;;10.20;9.40;;;;;;;4.65;96.33;99327.03;6171174;28;21016;-63
2021/11/28 01:30:34;;;;;;;8.77;8.07;;;;;;;4.47;97.81;99318.59;6164252;28;20545;-64
2021/11/28 01:33:55;;;;;;;9.30;8.50;;;;;;;4.44;99.33;99326.38;6165702;28;20226;-63
2021/11/28 01:37:16;;;;;;;8.80;8.00;;;;;;;4.44;98.59;99331.53;6162646;28;20234;-62
2021/11/28 01:40:38;;;;;;;8.10;7.40;;;;;;;4.53;98.63;99331.44;6163429;28;20623;-64
2021/11/28 01:44:00;;;;;;;7.63;6.97;;;;;;;3.78;100.00;99336.22;6181170;28;20230;-64
2021/11/28 01:47:22;;;;;;;8.93;8.23;;;;;;;3.70;100.00;99334.56;6151423;28;20233;-63
2021/11/28 01:50:46;;;;;;;9.97;9.07;;;;;;;3.37;100.00;99332.97;6179700;28;20250;-64
2021/11/28 01:54:12;;;;;;;8.27;7.57;;;;;;;3.29;100.00;99345.03;6179902;28;20233;-63
2021/11/28 01:57:33;;;;;;;9.93;9.03;;;;;;;3.09;100.00;99339.94;6165695;28;20233;-64
2021/11/28 02:00:57;;;;;;;10.30;9.30;;;;;;;2.91;100.00;99351.97;6163229;28;20234;-64
2021/11/28 02:04:20;;;;;;;10.97;10.07;;;;;;;3.32;100.00;99340.72;6165492;28;20269;-64
2021/11/28 02:07:42;;;;;;;12.87;11.77;;;;;;;3.38;100.00;99341.56;6176970;28;20234;-63
2021/11/28 02:11:03;;;;;;;10.23;9.23;;;;;;;3.34;100.00;99341.56;6164671;28;20230;-64
2021/11/28 02:14:26;;;;;;;10.77;9.77;;;;;;;3.07;100.00;99333.94;6165056;28;20266;-64
2021/11/28 02:17:50;;;;;;;8.77;8.07;;;;;;;3.31;100.00;99326.13;6165496;28;20226;-64
2021/11/28 02:21:14;;;;;;;10.20;9.30;;;;;;;3.13;100.00;99323.63;6178351;28;20233;-63
2021/11/28 02:24:35;;;;;;;9.70;8.80;;;;;;;3.13;100.00;99332.19;6179521;28;20551;-63
2021/11/28 02:27:57;;;;;;;10.33;9.43;;;;;;;3.51;100.00;99326.06;6165098;28;20316;-64
2021/11/28 02:31:19;;;;;;;8.90;8.07;;;;;;;3.32;100.00;99327.84;6176218;28;20258;-63
2021/11/28 02:34:41;;;;;;;9.10;8.30;;;;;;;3.22;100.00;99322.72;6163484;28;20253;-64
2021/11/28 02:38:05;;;;;;;10.13;9.23;;;;;;;3.15;100.00;99329.63;6164366;28;20258;-63
2021/11/28 02:41:26;;;;;;;10.93;9.93;;;;;;;3.40;100.00;99326.97;6176422;28;20234;-62
2021/11/28 02:44:48;;;;;;;10.20;9.23;;;;;;;3.57;100.00;99325.19;6174750;28;20320;-63
2021/11/28 02:48:13;;;;;;;10.37;9.37;;;;;;;3.58;100.00;99323.47;6160185;28;20249;-63
2021/11/28 02:51:35;;;;;;;9.87;8.97;;;;;;;3.64;100.00;99324.28;6178314;28;20230;-64
2021/11/28 02:54:57;;;;;;;9.30;8.33;;;;;;;3.75;100.00;99324.25;6180195;28;20257;-64
2021/11/28 02:58:21;;;;;;;10.13;9.23;;;;;;;3.73;100.00;99329.41;6166702;28;20619;-63
2021/11/28 03:01:42;;;;;;;10.57;9.47;;;;;;;3.26;100.00;99329.59;6176854;28;20257;-62
2021/11/28 03:05:22;;;;;;;11.27;10.17;;;;;;;3.59;100.00;99332.88;6180335;28;20253;-62
2021/11/28 03:08:42;;;;;;;10.80;9.70;;;;;;;3.57;100.00;99329.47;6165122;28;20229;-64
2021/11/28 03:12:06;;;;;;;12.53;11.20;;;;;;;2.91;100.00;99335.69;6177424;28;20238;-63
2021/11/28 03:15:27;;;;;;;15.20;13.53;;;;;;;3.12;100.00;99333.06;6180174;28;20229;-64
2021/11/28 03:18:53;;;;;;;14.57;13.07;;;;;;;3.31;100.00;99333.84;6186736;28;20312;-63
2021/11/28 03:22:14;;;;;;;13.93;12.43;;;;;;;2.77;100.00;99330.53;6184336;28;20230;-63
2021/11/28 03:25:35;;;;;;;14.60;13.17;;;;;;;3.20;100.00;99338.19;6184518;28;20238;-63
2021/11/28 03:29:00;;;;;;;13.70;12.30;;;;;;;3.09;100.00;99332.22;6184278;28;20229;-63
2021/11/28 03:32:40;;;;;;;15.10;13.63;;;;;;;3.40;100.00;99325.25;6181741;28;20245;-62
2021/11/28 03:36:22;;;;;;;15.63;13.93;;;;;;;2.99;100.00;99333.09;6167594;28;20619;-64
2021/11/28 03:39:44;;;;;;;16.47;14.77;;;;;;;3.60;100.00;99338.03;6155767;28;20241;-63
2021/11/28 03:43:06;;;;;;;16.43;14.77;;;;;;;3.18;100.00;99339.91;6183421;28;20230;-64
2021/11/28 03:46:30;;;;;;;15.33;13.73;;;;;;;3.45;100.00;99338.97;6167047;28;20261;-63
2021/11/28 03:49:54;;;;;;;13.80;11.90;;;;;;;2.58;100.00;99341.69;6181382;28;20230;-63
2021/11/28 03:53:15;;;;;;;17.30;14.93;;;;;;;3.04;100.00;99342.50;6169286;28;20234;-63
2021/11/28 03:56:36;;;;;;;16.23;14.03;;;;;;;3.01;100.00;99344.25;6184530;28;20230;-64
2021/11/28 03:59:57;;;;;;;16.17;14.53;;;;;;;3.01;100.00;99339.94;6183491;28;20237;-63
2021/11/28 04:03:20;;;;;;;15.33;13.77;;;;;;;2.92;100.00;99348.53;6168800;28;20230;-64
2021/11/28 04:06:41;;;;;;;16.30;14.60;;;;;;;3.09;100.00;99342.50;6180534;28;20328;-62
2021/11/28 04:10:05;;;;;;;16.27;13.87;;;;;;;2.56;100.00;99350.28;6166370;28;20546;-64
2021/11/28 04:13:26;;;;;;;13.73;12.33;;;;;;;3.19;100.00;99344.19;6172597;28;20226;-63
2021/11/28 04:16:47;;;;;;;16.30;14.03;;;;;;;2.90;100.00;99344.25;6180746;28;20226;-62
2021/11/28 04:20:11;;;;;;;15.53;13.87;;;;;;;2.89;100.00;99345.97;6156136;28;20409;-63
2021/11/28 04:23:32;;;;;;;15.70;14.00;;;;;;;3.31;100.00;99351.00;6180067;28;20234;-64
2021/11/28 04:26:53;;;;;;;13.23;11.87;;;;;;;2.91;100.00;99339.13;6164594;28;20238;-63
2021/11/28 04:30:15;;;;;;;14.83;12.97;;;;;;;3.23;100.00;99340.75;6182203;28;20230;-62
2021/11/28 04:33:36;;;;;;;15.67;14.03;;;;;;;3.12;100.00;99348.50;6182331;28;20226;-64
2021/11/28 04:36:59;;;;;;;15.90;14.30;;;;;;;3.40;100.00;99347.56;6183345;28;20865;-62
2021/11/28 04:40:20;;;;;;;15.43;13.87;;;;;;;3.26;100.00;99347.63;6183743;28;20506;-63
2021/11/28 04:43:41;;;;;;;14.90;13.47;;;;;;;2.99;100.00;99348.53;6188815;28;20229;-65
2021/11/28 04:47:02;;;;;;;13.67;12.23;;;;;;;3.02;100.00;99341.66;6174419;28;20226;-62
2021/11/28 04:50:23;;;;;;;13.93;12.40;;;;;;;3.29;100.00;99347.59;6170096;28;20233;-64
2021/11/28 04:53:46;;;;;;;13.10;11.60;;;;;;;3.06;100.00;99348.50;6187489;28;20238;-62
2021/11/28 04:57:08;;;;;;;13.77;12.40;;;;;;;2.63;100.00;99352.84;6161324;28;20560;-64
2021/11/28 05:00:30;;;;;;;16.07;14.47;;;;;;;3.01;100.00;99363.09;6159573;28;20329;-64
2021/11/28 05:03:54;;;;;;;14.53;13.03;;;;;;;2.99;100.00;99363.97;6179953;28;20234;-63
2021/11/28 05:07:34;;;;;;;15.47;13.80;;;;;;;2.66;100.00;99365.72;6183792;28;20234;-63
2021/11/28 05:10:56;;;;;;;15.53;14.03;;;;;;;2.55;100.00;99373.41;6168370;28;20226;-63
2021/11/28 05:14:17;;;;;;;15.57;13.73;;;;;;;2.83;100.00;99371.69;6182812;28;20230;-64
2021/11/28 05:17:39;;;;;;;16.33;14.47;;;;;;;2.25;100.00;99380.22;6164264;28;20536;-63
2021/11/28 05:21:00;;;;;;;14.80;13.30;;;;;;;2.88;100.00;99376.81;6177616;28;20242;-64
2021/11/28 05:24:21;;;;;;;17.10;14.80;;;;;;;2.98;100.00;99373.38;6180170;28;20238;-64
2021/11/28 05:27:47;;;;;;;17.40;15.50;;;;;;;2.94;100.00;99369.94;6163881;28;20261;-63
2021/11/28 05:31:11;;;;;;;17.67;15.43;;;;;;;3.11;100.00;99374.22;6179655;28;20238;-63
2021/11/28 05:35:10;;;;;;;17.00;15.03;;;;;;;2.99;100.00;99374.25;6180617;28;20249;-63
2021/11/28 05:38:53;;;;;;;18.93;16.03;;;;;;;3.11;100.00;99377.66;6168603;28;20229;-61
2021/11/28 05:42:14;;;;;;;18.83;16.93;;;;;;;2.87;100.00;99375.97;6179451;28;20241;-64
2021/11/28 05:45:37;;;;;;;19.73;16.90;;;;;;;3.05;100.00;99385.38;6167537;28;20225;-63
2021/11/28 05:49:22;;;;;;;18.30;16.23;;;;;;;3.06;100.00;99381.09;6178372;28;20242;-64
2021/11/28 05:53:02;;;;;;;19.33;17.33;;;;;;;3.12;100.00;99375.91;6178859;28;20229;-62
2021/11/28 05:56:24;;;;;;;18.73;16.83;;;;;;;2.82;100.00;99380.25;6164808;28;20545;-63
2021/11/28 05:59:45;;;;;;;17.30;15.50;;;;;;;3.10;100.00;99375.06;6165383;28;21507;-63
2021/11/28 06:03:07;;;;;;;18.13;16.17;;;;;;;2.69;100.00;99391.41;6176303;28;20222;-62
2021/11/28 06:06:31;;;;;;;16.57;14.90;;;;;;;3.20;100.00;99386.19;6180967;28;20912;-63
2021/11/28 06:10:07;;;;;;;18.67;16.67;;;;;;;3.00;100.00;99383.66;6165611;28;20237;-63
2021/11/28 06:13:31;;;;;;;19.77;17.77;;;;;;;2.92;100.00;99379.38;6165036;28;20253;-64
2021/11/28 06:17:10;;;;;;;19.33;17.33;;;;;;;3.04;100.00;99383.66;6177110;28;20225;-64
2021/11/28 06:20:35;;;;;;;19.50;17.20;;;;;;;3.04;100.00;99378.50;6178768;28;20257;-63
2021/11/28 06:24:08;;;;;;;21.73;17.97;;;;;;;2.88;100.00;99387.97;6169736;28;20225;-63
2021/11/28 06:27:29;;;;;;;19.80;17.80;;;;;;;2.78;100.00;99385.41;6181630;28;20233;-64
2021/11/28 06:30:50;;;;;;;19.23;17.23;;;;;;;2.80;100.00;99386.25;6159967;28;20234;-64
2021/11/28 06:34:11;;;;;;;18.60;16.13;;;;;;;2.94;100.00;99390.53;6176021;28;20237;-63
2021/11/28 06:37:52;;;;;;;19.40;17.37;;;;;;;3.00;100.00;99381.09;6178064;28;20229;-63
2021/11/28 06:41:31;;;;;;;17.63;15.83;;;;;;;2.91;100.00;99375.13;6177758;28;20234;-64
2021/11/28 06:44:53;;;;;;;17.87;15.97;;;;;;;3.08;100.00;99392.22;6174092;28;20233;-63
2021/11/28 06:48:13;;;;;;;17.70;15.90;;;;;;;3.00;100.00;99389.66;6177219;28;20225;-62
2021/11/28 06:52:01;;;;;;;17.17;15.50;;;;;;;2.78;100.00;99396.53;6176632;28;20321;-62
2021/11/28 06:55:42;;;;;;;18.83;16.80;;;;;;;2.73;100.00;99403.38;6180166;28;20249;-63
2021/11/28 06:59:11;;;;;;;16.10;14.40;;;;;;;3.01;100.00;99403.41;6164585;28;20249;-64
2021/11/28 07:02:38;;;;;;;17.20;15.40;;;;;;;3.10;100.00;99404.25;6172941;28;20234;-64
2021/11/28 07:06:18;;;;;;;17.73;15.90;;;;;;;3.27;100.00;99411.91;6180108;28;20233;-62
2021/11/28 07:09:47;;;;;;;17.63;15.90;;;;;;;3.10;100.00;99419.69;6145925;28;20234;-63
2021/11/28 07:13:10;;;;;;;15.73;14.20;;;;;;;3.60;100.00;99423.00;6165641;28;20237;-63
2021/11/28 07:16:31;;;;;;;17.23;15.53;;;;;;;3.71;100.00;99425.53;6178327;28;20317;-63
2021/11/28 07:19:52;;;;;;;16.80;15.10;;;;;;;3.57;100.00;99427.28;6177420;28;20252;-64
2021/11/28 07:23:19;;;;;;;17.53;15.67;;;;;;;3.12;100.00;99423.09;6166083;28;20316;-63
2021/11/28 07:26:40;;;;;;;15.57;13.97;;;;;;;3.42;100.00;99430.78;6182156;28;20254;-63
2021/11/28 07:30:05;;;;;;;16.27;14.67;;;;;;;3.64;100.00;99427.25;6164494;28;20230;-63
2021/11/28 07:33:29;;;;;;;16.97;15.17;;;;;;;3.43;100.00;99435.94;6166027;28;20623;-64
2021/11/28 07:37:09;;;;;;;18.87;16.97;;;;;;;3.39;100.00;99441.06;6182687;28;20218;-64
2021/11/28 07:40:30;;;;;;;17.13;15.33;;;;;;;3.55;100.00;99433.31;6163789;28;20309;-64
2021/11/28 07:44:11;;;;;;;17.43;15.63;;;;;;;3.95;100.00;99429.72;6159193;28;20245;-64
2021/11/28 07:47:52;;;;;;;18.00;14.97;;;;;;;4.40;100.00;99430.38;6177256;28;20785;-63
2021/11/28 07:51:31;;;;;;;20.03;17.63;;;;;;;4.86;100.00;99434.34;6175432;28;20542;-63
2021/11/28 07:54:52;;;;;;;19.07;17.07;;;;;;;4.28;100.00;99433.00;6176267;28;20233;-61
2021/11/28 07:58:37;;;;;;;129.20;116.67;;;;;;;5.12;100.00;99436.72;6159019;28;20234;-65
2021/11/28 08:02:14;;;;;;;40.90;37.60;;;;;;;4.79;100.00;99441.28;6183279;28;20689;-61
2021/11/28 08:05:37;;;;;;;393.23;350.67;;;;;;;5.24;100.00;99446.06;6183171;28;20229;-60
2021/11/28 08:09:18;;;;;;;35.07;31.97;;;;;;;4.48;100.00;99444.06;6177939;28;20317;-62
2021/11/28 08:12:43;;;;;;;77.47;70.23;;;;;;;4.93;100.00;99447.19;6180627;28;20820;-63
2021/11/28 08:16:05;;;;;;;21.93;19.73;;;;;;;5.11;100.00;99447.91;6180227;28;20222;-63
2021/11/28 08:19:26;;;;;;;18.10;16.17;;;;;;;5.00;100.00;99454.88;6187159;28;20229;-63
2021/11/28 08:22:48;;;;;;;17.47;15.77;;;;;;;4.97;100.00;99466.06;6185602;28;20588;-63
2021/11/28 08:26:10;;;;;;;15.40;14.00;;;;;;;4.79;100.00;99459.34;6185721;28;20230;-63
2021/11/28 08:29:31;;;;;;;16.60;14.93;;;;;;;4.59;100.00;99458.59;6185779;28;20218;-63
2021/11/28 08:32:54;;;;;;;17.13;15.43;;;;;;;4.35;100.00;99473.34;6177661;28;20849;-63
2021/11/28 08:36:42;;;;;;;18.03;16.20;;;;;;;4.43;100.00;99476.75;6171609;28;20229;-64
2021/11/28 08:40:07;;;;;;;15.63;14.03;;;;;;;4.89;100.00;99471.28;6176966;28;20234;-62
2021/11/28 08:43:28;;;;;;;16.30;14.60;;;;;;;4.18;100.00;99481.16;6169173;28;20226;-62
2021/11/28 08:46:50;;;;;;;15.60;14.10;;;;;;;4.39;100.00;99485.38;6180414;28;20238;-61
2021/11/28 08:50:14;;;;;;;16.47;14.83;;;;;;;4.29;100.00;99486.28;6183725;28;20316;-62
2021/11/28 08:53:35;;;;;;;17.53;15.83;;;;;;;4.61;100.00;99483.50;6187883;28;20233;-63
2021/11/28 08:56:58;;;;;;;17.47;15.77;;;;;;;4.72;100.00;99480.88;6190963;28;20253;-63
2021/11/28 09:00:19;;;;;;;18.77;16.90;;;;;;;4.56;100.00;99476.69;6182340;28;20254;-63
2021/11/28 09:03:40;;;;;;;18.03;16.23;;;;;;;4.45;100.00;99469.84;6185556;28;20535;-62
2021/11/28 09:07:01;;;;;;;18.97;17.07;;;;;;;4.75;100.00;99467.97;6188682;28;20554;-63
2021/11/28 09:10:22;;;;;;;19.63;17.53;;;;;;;4.64;100.00;99470.59;6188178;28;20274;-62
2021/11/28 09:13:44;;;;;;;17.70;15.90;;;;;;;4.24;100.00;99480.28;6185668;28;20792;-61
2021/11/28 09:17:05;;;;;;;16.57;14.87;;;;;;;4.48;100.00;99482.75;6186055;28;20376;-63
2021/11/28 09:20:27;;;;;;;18.47;16.57;;;;;;;5.05;100.00;99473.75;6185333;28;20230;-63
2021/11/28 09:27:29;;;;;;;16.20;14.57;;;;;;;5.30;100.00;99471.81;6184103;28;20317;-62
2021/11/28 09:30:51;;;;;;;18.53;16.73;;;;;;;5.01;100.00;99490.13;6176437;28;20234;-63
2021/11/28 09:34:12;;;;;;;17.53;15.70;;;;;;;5.49;100.00;99483.69;6184565;28;20238;-63
2021/11/28 09:37:33;;;;;;;16.30;14.77;;;;;;;5.54;100.00;99475.88;6189295;28;20446;-63
2021/11/28 09:40:55;;;;;;;16.57;14.97;;;;;;;5.19;100.00;99482.22;6184967;28;20610;-62
2021/11/28 09:44:17;;;;;;;15.77;14.27;;;;;;;5.52;100.00;99478.50;6183079;28;20234;-62
2021/11/28 09:47:39;;;;;;;18.90;16.90;;;;;;;5.48;100.00;99475.94;6185329;28;20249;-62
2021/11/28 09:51:03;;;;;;;17.67;16.00;;;;;;;5.33;100.00;99472.66;6184588;28;20238;-62
2021/11/28 09:54:25;;;;;;;16.10;14.43;;;;;;;5.25;100.00;99474.47;6187445;28;20581;-62
2021/11/28 09:57:46;;;;;;;16.27;14.67;;;;;;;5.27;100.00;99477.88;6187716;28;20233;-63
2021/11/28 10:01:06;;;;;;;16.17;14.67;;;;;;;5.33;100.00;99480.41;6185687;28;20620;-63
2021/11/28 10:04:29;;;;;;;16.50;14.80;;;;;;;5.63;100.00;99478.38;6186624;28;20224;-62
2021/11/28 10:07:52;;;;;;;15.60;14.10;;;;;;;5.51;100.00;99469.03;6186525;28;20237;-61
2021/11/28 10:11:58;;;;;;;14.80;13.40;;;;;;;5.62;99.31;99463.78;6187842;28;20234;-62
2021/11/28 10:15:22;;;;;;;12.67;11.47;;;;;;;5.60;99.47;99465.50;6158011;28;20241;-63
2021/11/28 10:18:43;;;;;;;13.40;12.10;;;;;;;5.61;98.52;99462.06;6183099;28;20229;-63
2021/11/28 10:22:06;;;;;;;13.10;11.77;;;;;;;5.49;96.89;99463.03;6184060;28;20234;-62
2021/11/28 10:25:29;;;;;;;11.60;10.60;;;;;;;5.48;96.81;99463.03;6184411;28;20218;-63
2021/11/28 10:29:05;;;;;;;12.33;11.13;;;;;;;5.46;97.08;99469.94;6175365;28;20250;-63
2021/11/28 10:32:25;;;;;;;13.63;12.33;;;;;;;5.43;99.17;99462.22;6183424;28;20233;-63
2021/11/28 10:36:02;;;;;;;14.17;12.77;;;;;;;5.61;97.77;99451.72;6183863;28;20531;-63
2021/11/28 10:39:25;;;;;;;15.40;13.80;;;;;;;5.57;96.47;99450.03;6185434;28;20230;-61
2021/11/28 10:42:48;;;;;;;15.30;13.80;;;;;;;5.77;96.59;99446.38;6185384;28;20229;-63
2021/11/28 10:46:23;;;;;;;14.67;13.27;;;;;;;5.64;98.84;99451.69;6177470;28;20241;-64
2021/11/28 10:49:44;;;;;;;15.67;14.17;;;;;;;5.85;97.24;99454.91;6186396;28;20340;-62
2021/11/28 10:53:07;;;;;;;17.50;15.80;;;;;;;6.08;95.26;99452.06;6186027;28;20348;-63
2021/11/28 10:56:30;;;;;;;16.63;15.03;;;;;;;6.13;94.95;99462.34;6181260;28;20237;-62
2021/11/28 10:59:57;;;;;;;16.40;14.90;;;;;;;5.64;97.63;99462.03;6182883;28;20516;-61
2021/11/28 11:03:20;;;;;;;15.70;14.20;;;;;;;5.36;98.58;99461.44;6173060;28;20532;-61
2021/11/28 11:06:41;;;;;;;17.40;15.80;;;;;;;5.80;97.32;99462.72;6185214;28;20230;-63
2021/11/28 11:10:05;;;;;;;15.93;14.43;;;;;;;5.72;97.11;99470.53;6177227;28;20246;-62
2021/11/28 11:13:27;;;;;;;17.40;15.50;;;;;;;5.75;97.64;99473.97;6150567;28;20238;-62
2021/11/28 11:16:49;;;;;;;16.40;14.80;;;;;;;5.79;97.67;99467.88;6167258;28;20226;-62
2021/11/28 11:20:10;;;;;;;16.07;14.47;;;;;;;5.80;96.94;99469.63;6167214;28;20325;-60
2021/11/28 11:23:34;;;;;;;15.77;14.07;;;;;;;5.75;96.34;99468.81;6163899;28;21787;-62
2021/11/28 11:27:04;;;;;;;17.30;15.60;;;;;;;5.96;96.63;99471.16;6168371;28;20547;-63
2021/11/28 11:30:26;;;;;;;15.43;13.90;;;;;;;6.42;93.17;99468.00;6170229;28;20237;-61
2021/11/28 11:33:47;;;;;;;15.03;13.63;;;;;;;6.16;91.73;99475.25;6169933;28;20234;-64
2021/11/28 11:37:13;;;;;;;14.03;12.70;;;;;;;6.30;89.86;99478.50;6169967;28;20234;-63
2021/11/28 11:40:34;;;;;;;14.10;12.77;;;;;;;6.53;89.79;99475.59;6171012;28;20249;-62
2021/11/28 11:43:55;;;;;;;16.40;14.83;;;;;;;6.58;87.76;99476.41;6171162;28;20229;-61
2021/11/28 11:47:18;;;;;;;13.93;12.57;;;;;;;5.82;92.31;99475.63;6175189;28;20238;-61
2021/11/28 11:50:39;;;;;;;14.23;12.83;;;;;;;6.44;88.46;99470.59;6166716;28;20257;-63
2021/11/28 11:54:03;;;;;;;14.60;13.17;;;;;;;6.77;85.13;99470.97;6169952;28;20225;-63
2021/11/28 11:57:27;;;;;;;14.33;13.00;;;;;;;6.41;85.41;99478.38;6170140;28;20225;-61
2021/11/28 12:00:57;;;;;;;15.27;13.87;;;;;;;7.04;84.25;99474.88;6163710;28;20320;-62
2021/11/28 12:04:38;;;;;;;12.90;11.60;;;;;;;7.13;81.93;99468.66;6165499;28;20639;-63
2021/11/28 12:08:01;;;;;;;12.03;11.03;;;;;;;6.43;85.00;99479.19;6179565;28;20230;-63
2021/11/28 12:11:22;;;;;;;9.77;8.80;;;;;;;5.95;84.14;99477.19;6189354;28;20902;-62
2021/11/28 12:15:17;;;;;;;8.90;8.07;;;;;;;6.26;83.10;99474.25;6189240;28;20237;-63
2021/11/28 12:18:41;;;;;;;9.80;8.87;;;;;;;6.01;82.72;99469.41;6190212;28;20312;-63
2021/11/28 12:22:04;;;;;;;8.77;8.03;;;;;;;6.24;83.23;99469.13;6191771;28;20230;-62
2021/11/28 12:25:42;;;;;;;9.10;8.13;;;;;;;5.55;86.60;99472.44;6193042;28;20623;-63
2021/11/28 12:29:22;;;;;;;8.33;7.63;;;;;;;5.46;88.09;99468.22;6191484;28;20607;-63
2021/11/28 12:32:52;;;;;;;7.70;7.00;;;;;;;5.37;87.81;99467.44;6184608;28;20226;-62
2021/11/28 12:36:41;;;;;;;8.87;8.07;;;;;;;5.02;91.01;99472.06;6176270;28;20233;-62
2021/11/28 12:40:24;;;;;;;9.20;8.30;;;;;;;5.33;92.08;99476.94;6190410;28;20225;-63
2021/11/28 12:44:06;;;;;;;9.13;8.33;;;;;;;5.68;91.42;99476.63;6188866;28;20686;-63
2021/11/28 12:47:30;;;;;;;10.80;9.87;;;;;;;5.73;90.40;99472.25;6176559;28;20234;-61
2021/11/28 12:50:58;;;;;;;10.23;9.37;;;;;;;6.06;89.95;99475.34;6176283;28;20234;-62
2021/11/28 12:54:25;;;;;;;11.50;10.50;;;;;;;5.75;90.16;99474.81;6188423;28;20623;-62
2021/11/28 12:58:06;;;;;;;11.27;10.37;;;;;;;6.09;89.56;99470.16;6189629;28;20226;-62
2021/11/28 13:01:48;;;;;;;12.33;11.30;;;;;;;5.97;92.09;99478.06;6181164;28;20218;-63
2021/11/28 13:05:35;;;;;;;10.43;9.53;;;;;;;6.18;90.54;99481.25;6181686;28;21570;-61
2021/11/28 13:08:56;;;;;;;11.73;10.70;;;;;;;5.82;90.00;99475.63;6186321;28;20541;-62
2021/11/28 13:12:17;;;;;;;11.07;10.03;;;;;;;5.69;91.40;99480.06;6185647;28;20230;-62
2021/11/28 13:15:41;;;;;;;9.73;8.83;;;;;;;6.02;90.13;99480.59;6180340;28;20264;-62
2021/11/28 13:19:03;;;;;;;11.73;10.70;;;;;;;6.01;89.88;99477.16;6189027;28;20325;-61
2021/11/28 13:22:24;;;;;;;11.90;10.37;;;;;;;5.83;90.90;99482.47;6178102;28;20229;-63
2021/11/28 13:26:04;;;;;;;11.97;10.87;;;;;;;5.60;93.29;99486.16;6187222;28;20505;-61
2021/11/28 13:29:31;;;;;;;11.93;10.73;;;;;;;4.96;96.24;99491.88;6181878;28;20230;-63
2021/11/28 13:33:05;;;;;;;13.20;12.03;;;;;;;5.22;94.59;99495.13;6184275;28;20511;-63
2021/11/28 13:36:39;;;;;;;12.10;11.03;;;;;;;5.25;95.23;99500.28;6186988;28;20229;-62
2021/11/28 13:40:09;;;;;;;12.40;11.40;;;;;;;5.34;95.08;99494.16;6188494;28;20537;-62
2021/11/28 13:43:35;;;;;;;13.00;11.90;;;;;;;5.50;93.73;99489.69;6193556;28;20261;-62
2021/11/28 13:46:58;;;;;;;10.83;9.83;;;;;;;5.37;92.89;99488.09;6185328;28;20226;-60
2021/11/28 13:50:20;;;;;;;11.97;10.77;;;;;;;5.57;92.34;99491.38;6184991;28;20573;-63
2021/11/28 13:53:53;;;;;;;12.47;11.37;;;;;;;5.53;90.66;99489.69;6184901;28;20241;-63
2021/11/28 13:57:18;;;;;;;11.33;10.17;;;;;;;5.76;90.28;99492.03;6185295;28;20226;-62
2021/11/28 14:00:39;;;;;;;10.30;9.37;;;;;;;5.62;90.77;99484.44;6182473;28;20309;-63
2021/11/28 14:04:00;;;;;;;10.30;9.40;;;;;;;5.70;90.20;99497.28;6185669;28;20229;-62
2021/11/28 14:07:24;;;;;;;12.07;10.87;;;;;;;5.84;89.68;99494.53;6187852;28;20607;-63
2021/11/28 14:10:45;;;;;;;12.13;10.93;;;;;;;5.85;89.51;99488.50;6178955;28;20241;-63
2021/11/28 14:14:06;;;;;;;9.70;8.90;;;;;;;5.69;90.37;99501.56;6187521;28;20229;-62
2021/11/28 14:17:28;;;;;;;11.23;10.23;;;;;;;5.93;89.25;99499.59;6180780;28;20275;-62
2021/11/28 14:20:50;;;;;;;13.00;11.87;;;;;;;5.90;89.21;99504.81;6187046;28;20808;-62
2021/11/28 14:24:28;;;;;;;11.97;10.87;;;;;;;5.68;89.52;99505.03;6181491;28;21506;-63
2021/11/28 14:28:13;;;;;;;11.77;10.77;;;;;;;5.86;89.39;99503.13;6183805;28;20619;-63
2021/11/28 14:31:34;;;;;;;14.80;13.40;;;;;;;5.71;90.17;99506.72;6183364;28;20226;-62
2021/11/28 14:35:20;;;;;;;12.60;11.40;;;;;;;5.36;92.78;99513.06;6186591;28;20265;-64
2021/11/28 14:38:45;;;;;;;13.63;12.27;;;;;;;5.17;93.92;99517.53;6190190;28;20238;-61
2021/11/28 14:42:14;;;;;;;13.77;12.53;;;;;;;5.29;93.31;99521.72;6180721;28;20233;-62
2021/11/28 14:45:36;;;;;;;12.50;11.30;;;;;;;5.23;93.13;99522.63;6184175;28;20533;-62
2021/11/28 14:49:01;;;;;;;13.40;12.17;;;;;;;5.33;92.90;99528.56;6187777;28;20570;-62
2021/11/28 14:52:31;;;;;;;13.90;12.30;;;;;;;5.37;91.73;99542.31;6184528;28;20324;-62
2021/11/28 14:55:54;;;;;;;12.63;11.50;;;;;;;5.41;92.25;99544.88;6187607;28;20241;-62
2021/11/28 14:59:26;;;;;;;14.53;13.13;;;;;;;4.87;95.85;99540.09;6188425;28;20239;-62
2021/11/28 15:02:47;;;;;;;15.57;14.17;;;;;;;5.03;94.98;99547.75;6187327;28;20233;-63
2021/11/28 15:06:09;;;;;;;13.17;11.93;;;;;;;4.89;95.44;99543.53;6184511;28;20230;-62
2021/11/28 15:09:32;;;;;;;12.30;11.20;;;;;;;5.16;94.33;99540.75;6179021;28;20230;-62
2021/11/28 15:12:53;;;;;;;13.60;12.30;;;;;;;5.07;94.22;99541.69;6185562;28;20804;-61
2021/11/28 15:16:15;;;;;;;13.90;12.57;;;;;;;5.10;94.04;99547.69;6182770;28;20234;-61
2021/11/28 15:19:36;;;;;;;13.73;12.40;;;;;;;4.95;94.46;99552.09;6185691;28;20229;-61
2021/11/28 15:22:58;;;;;;;14.23;12.80;;;;;;;5.08;94.48;99553.75;6184000;28;20230;-61
2021/11/28 15:26:19;;;;;;;14.60;12.83;;;;;;;4.99;94.84;99552.06;6181780;28;20245;-62
2021/11/28 15:29:40;;;;;;;12.47;11.27;;;;;;;4.86;95.22;99556.44;6183599;28;20773;-62
2021/11/28 15:33:04;;;;;;;28.97;14.50;;;;;;;4.95;95.07;99562.44;6185810;28;20230;-63
2021/11/28 15:36:25;;;;;;;16.17;14.57;;;;;;;5.04;94.08;99572.66;6190039;28;20525;-63
2021/11/28 15:39:47;;;;;;;13.70;12.33;;;;;;;5.22;93.95;99567.41;6186910;28;20763;-62
2021/11/28 15:43:10;;;;;;;14.53;13.13;;;;;;;5.22;92.82;99567.41;6180746;28;20241;-62
2021/11/28 15:46:31;;;;;;;13.13;11.93;;;;;;;5.42;93.54;99571.56;6177699;28;20320;-62
2021/11/28 15:49:53;;;;;;;17.50;15.57;;;;;;;5.41;95.84;99567.25;6182833;28;20238;-62
2021/11/28 15:53:14;;;;;;;14.70;13.20;;;;;;;5.36;94.20;99569.03;6175264;28;21151;-62
2021/11/28 15:56:35;;;;;;;15.00;13.20;;;;;;;5.52;92.76;99560.28;6162213;28;20226;-63
2021/11/28 15:59:56;;;;;;;14.70;13.30;;;;;;;5.61;91.46;99564.50;6166885;28;20226;-62